createdAt,value
2018-04-29T00:00:56.506Z,6.73
2018-04-29T00:03:23.987Z,5.30
2018-04-29T00:05:51.471Z,5.43
2018-04-29T00:08:18.976Z,6.77
2018-04-29T00:10:46.461Z,9.00
2018-04-29T00:13:13.948Z,8.63
2018-04-29T00:15:42.187Z,7.60
2018-04-29T00:18:09.680Z,8.53
2018-04-29T00:20:37.154Z,7.30
2018-04-29T00:23:04.638Z,5.73
2018-04-29T00:25:32.135Z,7.07
2018-04-29T00:27:59.593Z,6.10
2018-04-29T00:30:27.081Z,7.63
2018-04-29T00:32:56.136Z,8.27
2018-04-29T00:35:24.308Z,7.30
2018-04-29T00:37:51.851Z,7.10
2018-04-29T00:40:19.321Z,7.37
2018-04-29T00:42:46.826Z,6.67
2018-04-29T00:45:14.310Z,8.67
2018-04-29T00:47:41.790Z,7.27
2018-04-29T00:50:09.267Z,8.20
2018-04-29T00:52:36.745Z,8.20
2018-04-29T00:55:04.217Z,8.60
2018-04-29T00:57:31.744Z,9.43
2018-04-29T00:59:59.206Z,9.63
2018-04-29T01:02:26.706Z,8.00
2018-04-29T01:04:54.164Z,8.13
2018-04-29T01:07:21.629Z,8.10
2018-04-29T01:09:49.158Z,7.17
2018-04-29T01:12:16.661Z,6.47
2018-04-29T01:14:44.151Z,6.67
2018-04-29T01:17:11.631Z,7.20
2018-04-29T01:19:39.108Z,6.23
2018-04-29T01:22:06.605Z,6.30
2018-04-29T01:24:34.111Z,6.50
2018-04-29T01:27:01.605Z,6.40
2018-04-29T01:29:29.072Z,6.80
2018-04-29T01:31:56.533Z,5.73
2018-04-29T01:34:24.016Z,6.57
2018-04-29T01:36:51.489Z,6.37
2018-04-29T01:39:22.863Z,6.30
2018-04-29T01:41:50.341Z,6.20
2018-04-29T01:44:17.809Z,5.93
2018-04-29T01:46:45.293Z,6.57
2018-04-29T01:49:13.545Z,5.90
2018-04-29T01:51:41.080Z,6.73
2018-04-29T01:54:08.551Z,8.13
2018-04-29T01:56:36.019Z,8.13
2018-04-29T01:59:03.532Z,8.57
2018-04-29T02:01:30.981Z,7.30
2018-04-29T02:03:58.467Z,8.07
2018-04-29T02:06:25.919Z,8.33
2018-04-29T02:08:53.417Z,7.10
2018-04-29T02:11:21.681Z,7.60
2018-04-29T02:13:49.151Z,8.00
2018-04-29T02:16:16.625Z,7.17
2018-04-29T02:18:44.977Z,6.07
2018-04-29T02:21:12.451Z,6.47
2018-04-29T02:23:39.931Z,6.23
2018-04-29T02:26:07.416Z,7.17
2018-04-29T02:28:34.908Z,7.20
2018-04-29T02:31:02.369Z,6.83
2018-04-29T02:33:29.839Z,8.27
2018-04-29T02:35:57.335Z,7.30
2018-04-29T02:38:24.825Z,5.87
2018-04-29T02:40:52.294Z,6.50
2018-04-29T02:43:19.745Z,6.03
2018-04-29T02:45:47.437Z,6.53
2018-04-29T02:48:14.917Z,6.83
2018-04-29T02:50:42.379Z,6.00
2018-04-29T02:53:09.850Z,6.33
2018-04-29T02:55:37.305Z,6.03
2018-04-29T02:58:04.770Z,5.97
2018-04-29T03:00:32.257Z,6.50
2018-04-29T03:02:59.725Z,6.37
2018-04-29T03:05:27.197Z,6.60
2018-04-29T03:07:55.418Z,6.47
2018-04-29T03:10:22.893Z,6.90
2018-04-29T03:12:50.393Z,7.93
2018-04-29T03:15:25.372Z,7.60
2018-04-29T03:17:52.858Z,7.57
2018-04-29T03:20:20.319Z,7.87
2018-04-29T03:22:47.780Z,10.30
2018-04-29T03:25:15.286Z,7.40
2018-04-29T03:27:42.742Z,6.80
2018-04-29T03:30:10.219Z,7.10
2018-04-29T03:32:37.695Z,6.30
2018-04-29T03:35:05.178Z,6.30
2018-04-29T03:37:32.674Z,6.53
2018-04-29T03:40:00.148Z,7.43
2018-04-29T03:42:27.624Z,7.30
2018-04-29T03:44:55.106Z,7.77
2018-04-29T03:47:25.550Z,7.40
2018-04-29T03:49:53.040Z,7.00
2018-04-29T03:52:22.719Z,7.00
2018-04-29T03:54:50.190Z,7.43
2018-04-29T03:57:30.970Z,8.37
2018-04-29T04:00:10.274Z,8.10
2018-04-29T04:02:51.233Z,7.87
2018-04-29T04:05:18.725Z,7.00
2018-04-29T04:07:46.183Z,7.53
2018-04-29T04:10:13.644Z,8.00
2018-04-29T04:12:41.128Z,8.70
2018-04-29T04:15:08.596Z,8.23
2018-04-29T04:17:36.064Z,6.60
2018-04-29T04:20:03.540Z,7.93
2018-04-29T04:22:31.806Z,8.30
2018-04-29T04:25:00.051Z,8.00
2018-04-29T04:27:27.509Z,7.70
2018-04-29T04:29:54.984Z,7.20
2018-04-29T04:32:22.445Z,6.87
2018-04-29T04:34:49.907Z,7.50
2018-04-29T04:37:17.393Z,7.40
2018-04-29T04:39:44.864Z,7.07
2018-04-29T04:42:12.319Z,8.43
2018-04-29T04:44:39.791Z,7.63
2018-04-29T04:47:08.091Z,7.30
2018-04-29T04:49:36.358Z,7.00
2018-04-29T04:52:03.807Z,7.87
2018-04-29T04:54:32.116Z,7.70
2018-04-29T04:56:59.580Z,7.50
2018-04-29T04:59:27.045Z,7.37
2018-04-29T05:01:54.519Z,6.73
2018-04-29T05:04:22.009Z,7.17
2018-04-29T05:06:49.665Z,6.90
2018-04-29T05:09:17.172Z,7.10
2018-04-29T05:11:44.663Z,9.50
2018-04-29T05:14:12.136Z,9.07
2018-04-29T05:16:40.191Z,8.97
2018-04-29T05:19:07.709Z,8.70
2018-04-29T05:21:35.186Z,9.43
2018-04-29T05:24:02.706Z,9.10
2018-04-29T05:26:30.267Z,9.37
2018-04-29T05:28:59.015Z,8.00
2018-04-29T05:31:26.792Z,9.37
2018-04-29T05:33:54.311Z,8.83
2018-04-29T05:36:21.863Z,10.47
2018-04-29T05:38:50.665Z,8.40
2018-04-29T05:41:20.765Z,8.30
2018-04-29T05:43:48.282Z,8.40
2018-04-29T05:46:15.753Z,7.93
2018-04-29T05:48:43.449Z,7.83
2018-04-29T05:51:10.910Z,8.20
2018-04-29T05:53:39.156Z,10.33
2018-04-29T05:56:07.532Z,10.90
2018-04-29T05:58:35.740Z,10.73
2018-04-29T06:01:03.256Z,11.70
2018-04-29T06:03:30.775Z,10.87
2018-04-29T06:05:59.670Z,8.93
2018-04-29T06:08:28.028Z,9.50
2018-04-29T06:10:55.542Z,9.87
2018-04-29T06:13:24.146Z,8.57
2018-04-29T06:15:51.628Z,8.57
2018-04-29T06:18:19.700Z,8.67
2018-04-29T06:20:47.975Z,8.17
2018-04-29T06:23:15.487Z,9.70
2018-04-29T06:25:42.938Z,9.57
2018-04-29T06:28:10.464Z,10.43
2018-04-29T06:30:38.101Z,7.83
2018-04-29T06:33:07.170Z,7.67
2018-04-29T06:35:34.653Z,6.07
2018-04-29T06:38:02.921Z,6.13
2018-04-29T06:40:30.465Z,6.60
2018-04-29T06:42:57.946Z,6.27
2018-04-29T06:45:25.446Z,6.70
2018-04-29T06:47:53.812Z,6.50
2018-04-29T06:50:22.106Z,6.97
2018-04-29T06:52:49.660Z,7.50
2018-04-29T06:55:17.129Z,9.03
2018-04-29T06:57:45.796Z,7.83
2018-04-29T07:00:13.280Z,7.93
2018-04-29T07:02:40.805Z,8.80
2018-04-29T07:05:08.286Z,9.73
2018-04-29T07:07:35.754Z,10.10
2018-04-29T07:10:04.110Z,9.80
2018-04-29T07:12:31.576Z,10.13
2018-04-29T07:14:59.050Z,10.57
2018-04-29T07:17:26.541Z,12.30
2018-04-29T07:19:54.049Z,11.20
2018-04-29T07:22:21.512Z,12.77
2018-04-29T07:24:49.002Z,12.97
2018-04-29T07:27:16.899Z,10.83
2018-04-29T07:29:44.421Z,10.83
2018-04-29T07:32:11.898Z,10.30
2018-04-29T07:34:40.544Z,10.00
2018-04-29T07:37:08.057Z,8.70
2018-04-29T07:39:36.612Z,7.80
2018-04-29T07:42:04.311Z,8.57
2018-04-29T07:44:33.317Z,8.83
2018-04-29T07:47:01.173Z,8.67
2018-04-29T07:49:28.727Z,9.07
2018-04-29T07:51:58.384Z,8.00
2018-04-29T07:54:26.277Z,7.30
2018-04-29T07:56:54.055Z,8.60
2018-04-29T07:59:23.403Z,6.93
2018-04-29T08:01:50.897Z,7.40
2018-04-29T08:04:18.631Z,7.50
2018-04-29T08:06:46.160Z,7.40
2018-04-29T08:09:14.374Z,7.20
2018-04-29T08:11:41.864Z,7.53
2018-04-29T08:14:10.161Z,7.17
2018-04-29T08:16:38.623Z,7.73
2018-04-29T08:19:06.122Z,6.10
2018-04-29T08:21:33.748Z,6.27
2018-04-29T08:24:02.001Z,6.57
2018-04-29T08:26:33.858Z,6.93
2018-04-29T08:29:02.638Z,6.90
2018-04-29T08:31:30.160Z,6.97
2018-04-29T08:33:58.354Z,5.67
2018-04-29T08:36:26.084Z,6.00
2018-04-29T08:38:55.726Z,7.73
2018-04-29T08:41:23.892Z,5.60
2018-04-29T08:43:52.275Z,5.40
2018-04-29T08:46:20.795Z,4.47
2018-04-29T08:48:49.034Z,3.97
2018-04-29T08:51:16.973Z,4.83
2018-04-29T08:53:44.498Z,4.27
2018-04-29T08:56:12.777Z,3.83
2018-04-29T08:58:41.255Z,3.47
2018-04-29T09:01:10.707Z,4.17
2018-04-29T09:03:38.711Z,3.70
2018-04-29T09:06:10.357Z,3.87
2018-04-29T09:08:41.724Z,4.00
2018-04-29T09:11:09.906Z,3.20
2018-04-29T09:13:38.619Z,4.10
2018-04-29T09:16:06.389Z,3.60
2018-04-29T09:18:33.870Z,3.60
2018-04-29T09:21:01.373Z,3.67
2018-04-29T09:23:29.632Z,4.37
2018-04-29T09:25:58.165Z,3.80
2018-04-29T09:28:34.656Z,3.60
2018-04-29T09:31:02.742Z,3.70
2018-04-29T09:33:31.864Z,3.87
2018-04-29T09:36:00.508Z,3.47
2018-04-29T09:38:28.711Z,3.50
2018-04-29T09:40:56.306Z,3.27
2018-04-29T09:43:23.861Z,4.37
2018-04-29T09:45:51.907Z,3.47
2018-04-29T09:48:19.426Z,4.10
2018-04-29T09:50:46.932Z,3.50
2018-04-29T09:53:14.417Z,3.87
2018-04-29T09:55:42.827Z,3.33
2018-04-29T09:58:10.321Z,4.13
2018-04-29T10:00:37.783Z,3.77
2018-04-29T10:03:07.698Z,3.70
2018-04-29T10:05:35.182Z,3.73
2018-04-29T10:08:02.681Z,3.20
2018-04-29T10:10:30.185Z,3.00
2018-04-29T10:12:57.649Z,3.40
2018-04-29T10:15:25.831Z,3.47
2018-04-29T10:17:53.327Z,3.50
2018-04-29T10:20:21.255Z,3.80
2018-04-29T10:22:48.845Z,3.53
2018-04-29T10:25:16.339Z,3.43
2018-04-29T10:27:44.623Z,3.70
2018-04-29T10:30:12.872Z,3.80
2018-04-29T10:32:40.374Z,4.00
2018-04-29T10:35:08.061Z,3.60
2018-04-29T10:37:35.426Z,3.53
2018-04-29T10:40:02.909Z,4.10
2018-04-29T10:42:30.429Z,3.60
2018-04-29T10:44:57.939Z,5.03
2018-04-29T10:47:25.425Z,4.10
2018-04-29T10:49:52.925Z,3.50
2018-04-29T10:52:20.405Z,3.60
2018-04-29T10:54:47.905Z,4.07
2018-04-29T10:57:15.402Z,3.60
2018-04-29T10:59:42.959Z,3.80
2018-04-29T11:02:10.446Z,3.73
2018-04-29T11:04:39.885Z,4.20
2018-04-29T11:07:08.204Z,4.10
2018-04-29T11:09:35.721Z,3.70
2018-04-29T11:12:03.863Z,4.10
2018-04-29T11:14:35.786Z,3.80
2018-04-29T11:17:03.272Z,4.30
2018-04-29T11:19:31.141Z,3.50
2018-04-29T11:21:58.650Z,3.67
2018-04-29T11:24:26.181Z,4.50
2018-04-29T11:26:54.419Z,4.10
2018-04-29T11:29:21.894Z,3.90
2018-04-29T11:31:49.366Z,3.70
2018-04-29T11:34:17.630Z,4.80
2018-04-29T11:36:52.858Z,4.53
2018-04-29T11:39:20.457Z,4.77
2018-04-29T11:41:48.057Z,4.60
2018-04-29T11:44:16.401Z,5.07
2018-04-29T11:46:43.885Z,5.17
2018-04-29T11:49:11.359Z,4.67
2018-04-29T11:51:38.875Z,5.10
2018-04-29T11:54:06.471Z,4.07
2018-04-29T11:56:34.901Z,5.20
2018-04-29T11:59:02.402Z,5.03
2018-04-29T12:01:29.901Z,4.30
2018-04-29T12:03:58.158Z,4.43
2018-04-29T12:06:25.659Z,5.00
2018-04-29T12:08:53.149Z,4.50
2018-04-29T12:11:20.624Z,3.97
2018-04-29T12:13:48.097Z,3.93
2018-04-29T12:16:15.607Z,3.93
2018-04-29T12:18:43.093Z,3.77
2018-04-29T12:21:10.593Z,4.10
2018-04-29T12:23:40.400Z,4.30
2018-04-29T12:26:07.942Z,4.40
2018-04-29T12:28:37.009Z,4.90
2018-04-29T12:31:04.522Z,5.27
2018-04-29T12:33:32.044Z,4.73
2018-04-29T12:36:00.385Z,4.37
2018-04-29T12:38:27.876Z,5.87
2018-04-29T12:40:56.778Z,6.93
2018-04-29T12:43:24.463Z,5.20
2018-04-29T12:45:52.687Z,5.00
2018-04-29T12:48:20.276Z,5.80
2018-04-29T12:50:48.515Z,7.70
2018-04-29T12:53:16.707Z,23.33
2018-04-29T12:55:44.220Z,9.37
2018-04-29T12:58:11.694Z,11.77
2018-04-29T13:00:39.264Z,7.50
2018-04-29T13:03:06.887Z,7.90
2018-04-29T13:05:34.493Z,11.47
2018-04-29T13:08:03.244Z,7.30
2018-04-29T13:10:30.760Z,8.20
2018-04-29T13:13:00.724Z,11.27
2018-04-29T13:15:28.236Z,6.90
2018-04-29T13:17:57.463Z,6.33
2018-04-29T13:20:25.761Z,6.37
2018-04-29T13:22:53.472Z,10.27
2018-04-29T13:25:20.971Z,12.50
2018-04-29T13:27:48.442Z,6.43
2018-04-29T13:30:15.929Z,5.20
2018-04-29T13:32:43.429Z,5.30
2018-04-29T13:35:10.913Z,7.00
2018-04-29T13:37:38.420Z,5.50
2018-04-29T13:40:06.142Z,6.50
2018-04-29T13:42:33.620Z,5.80
2018-04-29T13:45:02.304Z,5.97
2018-04-29T13:47:29.845Z,6.23
2018-04-29T13:49:57.514Z,6.40
2018-04-29T13:52:25.018Z,6.93
2018-04-29T13:54:53.528Z,6.87
2018-04-29T13:57:21.044Z,7.53
2018-04-29T13:59:48.593Z,7.43
2018-04-29T14:02:16.141Z,6.27
2018-04-29T14:04:46.557Z,5.70
2018-04-29T14:07:14.150Z,7.40
2018-04-29T14:09:41.593Z,8.37
2018-04-29T14:12:09.791Z,8.93
2018-04-29T14:14:37.275Z,8.30
2018-04-29T14:17:04.771Z,8.17
2018-04-29T14:19:32.279Z,9.60
2018-04-29T14:22:00.538Z,10.30
2018-04-29T14:24:28.272Z,7.77
2018-04-29T14:26:55.781Z,7.93
2018-04-29T14:29:24.196Z,7.90
2018-04-29T14:31:51.676Z,8.33
2018-04-29T14:34:19.206Z,8.40
2018-04-29T14:36:46.673Z,7.97
2018-04-29T14:39:16.983Z,7.73
2018-04-29T14:41:45.043Z,8.83
2018-04-29T14:44:12.670Z,9.00
2018-04-29T14:46:40.157Z,9.20
2018-04-29T14:49:07.650Z,8.97
2018-04-29T14:51:35.161Z,9.60
2018-04-29T14:54:03.978Z,8.70
2018-04-29T14:56:31.506Z,10.00
2018-04-29T14:58:59.835Z,10.23
2018-04-29T15:01:27.684Z,10.67
2018-04-29T15:03:55.459Z,9.30
2018-04-29T15:06:22.952Z,9.80
2018-04-29T15:08:50.452Z,9.77
2018-04-29T15:11:17.971Z,10.40
2018-04-29T15:13:46.253Z,8.83
2018-04-29T15:16:14.581Z,10.43
2018-04-29T15:18:53.857Z,9.73
2018-04-29T15:21:22.176Z,10.10
2018-04-29T15:23:49.676Z,9.83
2018-04-29T15:26:23.585Z,10.20
2018-04-29T15:28:58.045Z,11.47
2018-04-29T15:31:26.704Z,10.60
2018-04-29T15:33:54.722Z,8.90
2018-04-29T15:36:23.223Z,9.17
2018-04-29T15:38:51.904Z,9.73
2018-04-29T15:41:20.518Z,10.00
2018-04-29T15:43:49.189Z,8.73
2018-04-29T15:46:16.762Z,9.20
2018-04-29T15:48:45.679Z,9.83
2018-04-29T15:51:14.099Z,8.97
2018-04-29T15:53:42.612Z,10.13
2018-04-29T15:56:12.138Z,9.47
2018-04-29T15:58:40.597Z,9.83
2018-04-29T16:01:09.306Z,8.80
2018-04-29T16:03:38.935Z,9.70
2018-04-29T16:06:06.495Z,9.70
2018-04-29T16:08:34.299Z,10.03
2018-04-29T16:11:01.878Z,10.17
2018-04-29T16:13:29.346Z,10.40
2018-04-29T16:15:56.861Z,9.93
2018-04-29T16:18:24.384Z,10.37
2018-04-29T16:20:52.888Z,10.63
2018-04-29T16:23:20.398Z,10.57
2018-04-29T16:25:47.947Z,10.53
2018-04-29T16:28:15.452Z,10.07
2018-04-29T16:30:42.949Z,9.33
2018-04-29T16:33:10.422Z,9.07
2018-04-29T16:35:38.000Z,8.77
2018-04-29T16:38:06.302Z,9.07
2018-04-29T16:40:33.750Z,9.27
2018-04-29T16:43:01.360Z,8.93
2018-04-29T16:45:28.840Z,9.63
2018-04-29T16:47:56.350Z,8.60
2018-04-29T16:50:24.844Z,7.77
2018-04-29T16:52:55.218Z,9.47
2018-04-29T16:55:25.017Z,8.63
2018-04-29T16:57:53.453Z,8.50
2018-04-29T17:00:22.079Z,8.23
2018-04-29T17:02:50.740Z,7.83
2018-04-29T17:05:18.328Z,8.80
2018-04-29T17:07:46.508Z,9.13
2018-04-29T17:10:15.144Z,8.00
2018-04-29T17:12:43.595Z,8.20
2018-04-29T17:15:12.762Z,7.77
2018-04-29T17:17:40.581Z,8.90
2018-04-29T17:20:08.105Z,9.50
2018-04-29T17:22:36.375Z,8.77
2018-04-29T17:25:04.629Z,7.80
2018-04-29T17:27:33.159Z,8.30
2018-04-29T17:30:02.432Z,9.17
2018-04-29T17:32:32.063Z,8.20
2018-04-29T17:35:00.690Z,9.30
2018-04-29T17:37:29.067Z,9.70
2018-04-29T17:39:56.614Z,8.90
2018-04-29T17:42:24.114Z,8.67
2018-04-29T17:44:51.649Z,8.30
2018-04-29T17:47:19.139Z,8.67
2018-04-29T17:49:47.394Z,7.90
2018-04-29T17:52:14.888Z,7.20
2018-04-29T17:54:44.294Z,7.63
2018-04-29T17:57:11.779Z,8.10
2018-04-29T17:59:39.259Z,7.90
2018-04-29T18:02:06.762Z,8.07
2018-04-29T18:04:35.654Z,8.10
2018-04-29T18:07:03.186Z,8.03
2018-04-29T18:09:32.174Z,8.37
2018-04-29T18:12:00.429Z,7.77
2018-04-29T18:14:31.109Z,7.87
2018-04-29T18:16:58.944Z,8.30
2018-04-29T18:19:27.163Z,8.07
2018-04-29T18:21:56.079Z,9.00
2018-04-29T18:24:23.615Z,7.97
2018-04-29T18:26:51.089Z,8.37
2018-04-29T18:29:18.623Z,8.40
2018-04-29T18:31:46.411Z,8.33
2018-04-29T18:34:13.908Z,8.63
2018-04-29T18:36:41.380Z,8.23
2018-04-29T18:39:08.876Z,8.43
2018-04-29T18:41:36.379Z,8.57
2018-04-29T18:44:03.865Z,8.47
2018-04-29T18:46:31.358Z,7.40
2018-04-29T18:48:59.316Z,8.10
2018-04-29T18:51:26.932Z,8.07
2018-04-29T18:53:54.396Z,12.63
2018-04-29T18:56:22.673Z,8.20
2018-04-29T18:58:52.072Z,8.33
2018-04-29T19:01:19.646Z,8.27
2018-04-29T19:03:47.095Z,8.03
2018-04-29T19:06:16.771Z,7.47
2018-04-29T19:08:46.706Z,7.47
2018-04-29T19:11:17.722Z,7.60
2018-04-29T19:13:46.336Z,7.10
2018-04-29T19:16:13.885Z,7.53
2018-04-29T19:18:41.415Z,8.40
2018-04-29T19:21:09.798Z,6.80
2018-04-29T19:23:40.259Z,8.90
2018-04-29T19:26:07.847Z,7.13
2018-04-29T19:28:36.127Z,7.03
2018-04-29T19:31:05.203Z,7.30
2018-04-29T19:33:33.450Z,8.07
2018-04-29T19:36:07.406Z,7.27
2018-04-29T19:38:36.037Z,7.03
2018-04-29T19:41:04.228Z,8.17
2018-04-29T19:43:32.434Z,8.00
2018-04-29T19:46:01.476Z,6.97
2018-04-29T19:48:38.618Z,7.07
2018-04-29T19:51:11.335Z,7.43
2018-04-29T19:53:40.433Z,7.47
2018-04-29T19:56:07.969Z,7.10
2018-04-29T19:58:41.875Z,7.60
2018-04-29T20:01:17.701Z,7.30
2018-04-29T20:03:45.279Z,6.97
2018-04-29T20:06:16.453Z,7.50
2018-04-29T20:08:44.176Z,7.67
2018-04-29T20:11:13.122Z,6.90
2018-04-29T20:13:46.465Z,6.50
2018-04-29T20:16:17.680Z,7.10
2018-04-29T20:18:45.311Z,7.00
2018-04-29T20:21:12.846Z,6.80
2018-04-29T20:23:40.768Z,7.10
2018-04-29T20:26:10.790Z,6.80
2018-04-29T20:28:39.350Z,7.30
2018-04-29T20:31:07.428Z,6.70
2018-04-29T20:33:35.711Z,7.27
2018-04-29T20:36:03.550Z,5.77
2018-04-29T20:38:31.341Z,6.30
2018-04-29T20:40:59.743Z,6.97
2018-04-29T20:43:31.470Z,6.87
2018-04-29T20:45:59.048Z,6.50
2018-04-29T20:48:26.659Z,6.20
2018-04-29T20:50:54.108Z,6.47
2018-04-29T20:53:22.530Z,6.13
2018-04-29T20:55:50.046Z,6.23
2018-04-29T20:58:18.316Z,5.53
2018-04-29T21:00:45.853Z,6.17
2018-04-29T21:03:13.293Z,6.93
2018-04-29T21:05:40.770Z,6.83
2018-04-29T21:08:09.144Z,6.80
2018-04-29T21:10:38.315Z,6.60
2018-04-29T21:13:06.925Z,6.93
2018-04-29T21:15:36.681Z,7.80
2018-04-29T21:18:04.292Z,6.53
2018-04-29T21:20:32.557Z,7.67
2018-04-29T21:23:00.227Z,7.10
2018-04-29T21:25:28.484Z,6.50
2018-04-29T21:27:56.011Z,7.03
2018-04-29T21:30:24.441Z,8.00
2018-04-29T21:32:53.519Z,7.30
2018-04-29T21:35:22.349Z,7.03
2018-04-29T21:37:49.929Z,7.83
2018-04-29T21:40:17.769Z,6.43
2018-04-29T21:42:46.350Z,7.43
2018-04-29T21:45:15.038Z,7.13
2018-04-29T21:47:43.522Z,7.37
2018-04-29T21:50:12.411Z,7.83
2018-04-29T21:52:41.130Z,7.30
2018-04-29T21:55:08.704Z,6.83
2018-04-29T21:57:37.374Z,7.70
2018-04-29T22:00:05.055Z,7.10
2018-04-29T22:02:33.696Z,7.23
2018-04-29T22:05:02.178Z,7.43
2018-04-29T22:07:30.527Z,7.27
2018-04-29T22:09:58.892Z,7.77
2018-04-29T22:12:26.703Z,7.60
2018-04-29T22:14:55.624Z,8.47
2018-04-29T22:17:23.097Z,7.23
2018-04-29T22:19:51.193Z,6.50
2018-04-29T22:22:18.690Z,7.03
2018-04-29T22:24:46.182Z,6.53
2018-04-29T22:27:13.712Z,7.00
2018-04-29T22:29:41.198Z,7.53
2018-04-29T22:32:08.734Z,6.83
2018-04-29T22:34:36.233Z,6.60
2018-04-29T22:37:03.773Z,5.53
2018-04-29T22:39:31.249Z,4.70
2018-04-29T22:41:58.826Z,4.97
2018-04-29T22:44:29.382Z,5.43
2018-04-29T22:46:57.132Z,3.50
2018-04-29T22:49:25.860Z,3.73
2018-04-29T22:51:53.500Z,3.80
2018-04-29T22:54:21.068Z,3.77
2018-04-29T22:56:48.567Z,3.50
2018-04-29T22:59:16.790Z,2.70
2018-04-29T23:01:44.529Z,3.13
2018-04-29T23:04:12.049Z,3.20
2018-04-29T23:06:39.647Z,2.50
2018-04-29T23:09:07.299Z,3.50
2018-04-29T23:11:34.701Z,2.90
2018-04-29T23:14:02.179Z,3.20
2018-04-29T23:16:29.713Z,2.63
2018-04-29T23:18:57.178Z,2.60
2018-04-29T23:21:24.647Z,2.63
2018-04-29T23:23:52.115Z,2.60
2018-04-29T23:26:19.578Z,2.73
2018-04-29T23:28:47.088Z,2.67
2018-04-29T23:31:14.550Z,2.13
2018-04-29T23:33:42.788Z,2.53
2018-04-29T23:36:11.063Z,2.40
2018-04-29T23:38:39.318Z,2.60
2018-04-29T23:41:06.805Z,2.90
2018-04-29T23:43:35.022Z,2.80
2018-04-29T23:46:02.518Z,2.73
2018-04-29T23:48:30.004Z,3.83
2018-04-29T23:50:57.466Z,2.70
2018-04-29T23:53:24.945Z,2.60
2018-04-29T23:55:52.428Z,3.30
2018-04-29T23:58:19.970Z,2.77
